sensor_id;sensor_type;location;lat;lon;timestamp;P1;durP1;ratioP1;P2;durP2;ratioP2
44722;SDS011;30451;48.638;10.624;2023-03-14T00:00:57;1.20;;;0.60;;
44722;SDS011;30451;48.638;10.624;2023-03-14T00:03:23;1.58;;;0.93;;
44722;SDS011;30451;48.638;10.624;2023-03-14T00:05:48;0.63;;;0.47;;
44722;SDS011;30451;48.638;10.624;2023-03-14T00:08:14;1.60;;;0.70;;
44722;SDS011;30451;48.638;10.624;2023-03-14T00:10:40;1.02;;;0.60;;
44722;SDS011;30451;48.638;10.624;2023-03-14T00:13:05;1.30;;;0.73;;
44722;SDS011;30451;48.638;10.624;2023-03-14T00:15:34;1.42;;;0.77;;
44722;SDS011;30451;48.638;10.624;2023-03-14T00:18:00;1.15;;;0.65;;
44722;SDS011;30451;48.638;10.624;2023-03-14T00:20:26;1.23;;;0.70;;
44722;SDS011;30451;48.638;10.624;2023-03-14T00:22:52;1.05;;;0.57;;
44722;SDS011;30451;48.638;10.624;2023-03-14T00:25:18;1.75;;;0.65;;
44722;SDS011;30451;48.638;10.624;2023-03-14T00:27:43;1.08;;;0.70;;
44722;SDS011;30451;48.638;10.624;2023-03-14T00:30:09;1.20;;;0.70;;
44722;SDS011;30451;48.638;10.624;2023-03-14T00:32:35;1.67;;;0.63;;
44722;SDS011;30451;48.638;10.624;2023-03-14T00:35:01;0.80;;;0.60;;
44722;SDS011;30451;48.638;10.624;2023-03-14T00:37:28;3.22;;;0.80;;
44722;SDS011;30451;48.638;10.624;2023-03-14T00:39:53;1.10;;;0.60;;
44722;SDS011;30451;48.638;10.624;2023-03-14T00:42:19;1.20;;;0.50;;
44722;SDS011;30451;48.638;10.624;2023-03-14T00:44:45;1.58;;;0.70;;
44722;SDS011;30451;48.638;10.624;2023-03-14T00:47:10;2.47;;;0.95;;
44722;SDS011;30451;48.638;10.624;2023-03-14T00:49:36;1.17;;;0.70;;
44722;SDS011;30451;48.638;10.624;2023-03-14T00:52:01;0.95;;;0.57;;
44722;SDS011;30451;48.638;10.624;2023-03-14T00:54:27;1.42;;;0.80;;
44722;SDS011;30451;48.638;10.624;2023-03-14T00:56:53;1.27;;;0.70;;
44722;SDS011;30451;48.638;10.624;2023-03-14T00:59:18;1.38;;;0.60;;
44722;SDS011;30451;48.638;10.624;2023-03-14T01:01:44;1.63;;;0.73;;
44722;SDS011;30451;48.638;10.624;2023-03-14T01:04:10;1.25;;;0.60;;
44722;SDS011;30451;48.638;10.624;2023-03-14T01:06:35;2.30;;;0.80;;
44722;SDS011;30451;48.638;10.624;2023-03-14T01:09:01;1.25;;;0.60;;
44722;SDS011;30451;48.638;10.624;2023-03-14T01:11:29;1.52;;;0.70;;
44722;SDS011;30451;48.638;10.624;2023-03-14T01:13:56;0.80;;;0.50;;
44722;SDS011;30451;48.638;10.624;2023-03-14T01:16:23;1.20;;;0.57;;
44722;SDS011;30451;48.638;10.624;2023-03-14T01:18:50;1.33;;;0.57;;
44722;SDS011;30451;48.638;10.624;2023-03-14T01:21:18;1.20;;;0.55;;
44722;SDS011;30451;48.638;10.624;2023-03-14T01:23:45;1.00;;;0.50;;
44722;SDS011;30451;48.638;10.624;2023-03-14T01:26:12;0.77;;;0.50;;
44722;SDS011;30451;48.638;10.624;2023-03-14T01:28:40;0.88;;;0.50;;
44722;SDS011;30451;48.638;10.624;2023-03-14T01:31:07;0.80;;;0.40;;
44722;SDS011;30451;48.638;10.624;2023-03-14T01:33:34;1.13;;;0.63;;
44722;SDS011;30451;48.638;10.624;2023-03-14T01:36:00;0.80;;;0.50;;
44722;SDS011;30451;48.638;10.624;2023-03-14T01:38:30;1.15;;;0.60;;
44722;SDS011;30451;48.638;10.624;2023-03-14T01:40:56;0.82;;;0.60;;
44722;SDS011;30451;48.638;10.624;2023-03-14T01:43:23;0.47;;;0.40;;
44722;SDS011;30451;48.638;10.624;2023-03-14T01:51:01;1.17;;;0.70;;
44722;SDS011;30451;48.638;10.624;2023-03-14T01:53:29;0.63;;;0.50;;
44722;SDS011;30451;48.638;10.624;2023-03-14T01:55:55;1.00;;;0.60;;
44722;SDS011;30451;48.638;10.624;2023-03-14T01:58:22;1.05;;;0.55;;
44722;SDS011;30451;48.638;10.624;2023-03-14T02:00:50;0.93;;;0.52;;
44722;SDS011;30451;48.638;10.624;2023-03-14T02:03:16;1.00;;;0.57;;
44722;SDS011;30451;48.638;10.624;2023-03-14T02:05:46;0.68;;;0.50;;
44722;SDS011;30451;48.638;10.624;2023-03-14T02:08:14;1.98;;;0.50;;
44722;SDS011;30451;48.638;10.624;2023-03-14T02:13:09;1.05;;;0.50;;
44722;SDS011;30451;48.638;10.624;2023-03-14T02:15:36;1.00;;;0.57;;
44722;SDS011;30451;48.638;10.624;2023-03-14T02:18:03;0.50;;;0.50;;
44722;SDS011;30451;48.638;10.624;2023-03-14T02:23:13;0.70;;;0.50;;
44722;SDS011;30451;48.638;10.624;2023-03-14T02:25:51;1.25;;;0.68;;
44722;SDS011;30451;48.638;10.624;2023-03-14T02:28:31;0.88;;;0.60;;
44722;SDS011;30451;48.638;10.624;2023-03-14T02:30:56;0.82;;;0.57;;
44722;SDS011;30451;48.638;10.624;2023-03-14T02:33:22;0.82;;;0.52;;
44722;SDS011;30451;48.638;10.624;2023-03-14T02:35:59;1.50;;;0.60;;
44722;SDS011;30451;48.638;10.624;2023-03-14T02:38:28;0.95;;;0.60;;
44722;SDS011;30451;48.638;10.624;2023-03-14T02:40:54;0.50;;;0.50;;
44722;SDS011;30451;48.638;10.624;2023-03-14T02:43:20;1.08;;;0.50;;
44722;SDS011;30451;48.638;10.624;2023-03-14T02:45:46;0.40;;;0.40;;
44722;SDS011;30451;48.638;10.624;2023-03-14T02:48:14;1.10;;;0.50;;
44722;SDS011;30451;48.638;10.624;2023-03-14T02:50:50;0.88;;;0.50;;
44722;SDS011;30451;48.638;10.624;2023-03-14T02:53:19;1.50;;;0.60;;
44722;SDS011;30451;48.638;10.624;2023-03-14T02:56:06;0.85;;;0.50;;
44722;SDS011;30451;48.638;10.624;2023-03-14T02:58:33;0.90;;;0.50;;
44722;SDS011;30451;48.638;10.624;2023-03-14T03:00:58;0.80;;;0.50;;
44722;SDS011;30451;48.638;10.624;2023-03-14T03:03:24;0.70;;;0.50;;
44722;SDS011;30451;48.638;10.624;2023-03-14T03:05:50;1.17;;;0.50;;
44722;SDS011;30451;48.638;10.624;2023-03-14T03:08:18;0.40;;;0.40;;
44722;SDS011;30451;48.638;10.624;2023-03-14T03:10:44;0.90;;;0.50;;
44722;SDS011;30451;48.638;10.624;2023-03-14T03:13:10;0.50;;;0.40;;
44722;SDS011;30451;48.638;10.624;2023-03-14T03:15:35;1.25;;;0.63;;
44722;SDS011;30451;48.638;10.624;2023-03-14T03:18:01;0.80;;;0.50;;
44722;SDS011;30451;48.638;10.624;2023-03-14T03:20:27;0.90;;;0.52;;
44722;SDS011;30451;48.638;10.624;2023-03-14T03:22:52;0.43;;;0.43;;
44722;SDS011;30451;48.638;10.624;2023-03-14T03:25:18;0.43;;;0.43;;
44722;SDS011;30451;48.638;10.624;2023-03-14T03:27:44;0.40;;;0.40;;
44722;SDS011;30451;48.638;10.624;2023-03-14T03:30:09;0.50;;;0.50;;
44722;SDS011;30451;48.638;10.624;2023-03-14T03:32:36;0.88;;;0.60;;
44722;SDS011;30451;48.638;10.624;2023-03-14T03:35:04;0.85;;;0.55;;
44722;SDS011;30451;48.638;10.624;2023-03-14T03:37:31;0.90;;;0.52;;
44722;SDS011;30451;48.638;10.624;2023-03-14T03:39:57;0.95;;;0.60;;
44722;SDS011;30451;48.638;10.624;2023-03-14T03:42:23;0.40;;;0.40;;
44722;SDS011;30451;48.638;10.624;2023-03-14T03:44:48;0.68;;;0.43;;
44722;SDS011;30451;48.638;10.624;2023-03-14T03:47:14;0.80;;;0.50;;
44722;SDS011;30451;48.638;10.624;2023-03-14T03:49:40;0.95;;;0.50;;
44722;SDS011;30451;48.638;10.624;2023-03-14T03:52:06;1.05;;;0.65;;
44722;SDS011;30451;48.638;10.624;2023-03-14T03:54:31;1.58;;;0.63;;
44722;SDS011;30451;48.638;10.624;2023-03-14T03:56:57;0.65;;;0.40;;
44722;SDS011;30451;48.638;10.624;2023-03-14T03:59:23;0.93;;;0.47;;
44722;SDS011;30451;48.638;10.624;2023-03-14T04:01:48;1.15;;;0.60;;
44722;SDS011;30451;48.638;10.624;2023-03-14T04:04:14;0.73;;;0.50;;
44722;SDS011;30451;48.638;10.624;2023-03-14T04:06:40;0.68;;;0.50;;
44722;SDS011;30451;48.638;10.624;2023-03-14T04:09:06;0.82;;;0.50;;
44722;SDS011;30451;48.638;10.624;2023-03-14T04:11:33;1.00;;;0.60;;
44722;SDS011;30451;48.638;10.624;2023-03-14T04:13:58;0.50;;;0.50;;
44722;SDS011;30451;48.638;10.624;2023-03-14T04:16:24;0.63;;;0.50;;
44722;SDS011;30451;48.638;10.624;2023-03-14T04:18:50;0.93;;;0.50;;
44722;SDS011;30451;48.638;10.624;2023-03-14T04:21:16;0.70;;;0.50;;
44722;SDS011;30451;48.638;10.624;2023-03-14T04:23:42;0.30;;;0.30;;
44722;SDS011;30451;48.638;10.624;2023-03-14T04:26:07;0.55;;;0.40;;
44722;SDS011;30451;48.638;10.624;2023-03-14T04:28:33;0.95;;;0.47;;
44722;SDS011;30451;48.638;10.624;2023-03-14T04:31:06;0.30;;;0.30;;
44722;SDS011;30451;48.638;10.624;2023-03-14T04:33:39;1.08;;;0.50;;
44722;SDS011;30451;48.638;10.624;2023-03-14T04:36:06;0.50;;;0.40;;
44722;SDS011;30451;48.638;10.624;2023-03-14T04:38:32;0.57;;;0.50;;
44722;SDS011;30451;48.638;10.624;2023-03-14T04:40:58;0.45;;;0.40;;
44722;SDS011;30451;48.638;10.624;2023-03-14T04:43:24;0.80;;;0.45;;
44722;SDS011;30451;48.638;10.624;2023-03-14T04:45:50;0.30;;;0.30;;
44722;SDS011;30451;48.638;10.624;2023-03-14T04:48:19;0.47;;;0.35;;
44722;SDS011;30451;48.638;10.624;2023-03-14T04:50:48;0.57;;;0.47;;
44722;SDS011;30451;48.638;10.624;2023-03-14T04:53:14;0.57;;;0.40;;
44722;SDS011;30451;48.638;10.624;2023-03-14T04:55:41;1.00;;;0.50;;
44722;SDS011;30451;48.638;10.624;2023-03-14T04:58:06;0.85;;;0.40;;
44722;SDS011;30451;48.638;10.624;2023-03-14T05:00:32;0.60;;;0.47;;
44722;SDS011;30451;48.638;10.624;2023-03-14T05:02:58;0.98;;;0.50;;
44722;SDS011;30451;48.638;10.624;2023-03-14T05:05:23;0.40;;;0.40;;
44722;SDS011;30451;48.638;10.624;2023-03-14T05:07:49;0.57;;;0.40;;
44722;SDS011;30451;48.638;10.624;2023-03-14T05:10:15;0.43;;;0.40;;
44722;SDS011;30451;48.638;10.624;2023-03-14T05:12:41;0.30;;;0.30;;
44722;SDS011;30451;48.638;10.624;2023-03-14T05:15:07;0.45;;;0.40;;
44722;SDS011;30451;48.638;10.624;2023-03-14T05:17:33;0.45;;;0.40;;
44722;SDS011;30451;48.638;10.624;2023-03-14T05:19:59;0.50;;;0.40;;
44722;SDS011;30451;48.638;10.624;2023-03-14T05:22:25;1.02;;;0.30;;
44722;SDS011;30451;48.638;10.624;2023-03-14T05:24:50;0.32;;;0.32;;
44722;SDS011;30451;48.638;10.624;2023-03-14T05:27:16;0.30;;;0.30;;
44722;SDS011;30451;48.638;10.624;2023-03-14T05:29:42;0.30;;;0.30;;
44722;SDS011;30451;48.638;10.624;2023-03-14T05:32:07;0.30;;;0.30;;
44722;SDS011;30451;48.638;10.624;2023-03-14T05:34:33;0.32;;;0.30;;
44722;SDS011;30451;48.638;10.624;2023-03-14T05:36:59;0.60;;;0.40;;
44722;SDS011;30451;48.638;10.624;2023-03-14T05:39:24;0.82;;;0.47;;
44722;SDS011;30451;48.638;10.624;2023-03-14T05:41:50;0.30;;;0.30;;
44722;SDS011;30451;48.638;10.624;2023-03-14T05:44:16;0.40;;;0.40;;
44722;SDS011;30451;48.638;10.624;2023-03-14T05:46:42;0.40;;;0.40;;
44722;SDS011;30451;48.638;10.624;2023-03-14T05:49:07;0.50;;;0.38;;
44722;SDS011;30451;48.638;10.624;2023-03-14T05:51:33;0.63;;;0.50;;
44722;SDS011;30451;48.638;10.624;2023-03-14T05:53:58;0.32;;;0.30;;
44722;SDS011;30451;48.638;10.624;2023-03-14T05:56:24;0.25;;;0.20;;
44722;SDS011;30451;48.638;10.624;2023-03-14T05:58:50;0.40;;;0.40;;
44722;SDS011;30451;48.638;10.624;2023-03-14T06:01:15;0.30;;;0.30;;
44722;SDS011;30451;48.638;10.624;2023-03-14T06:03:41;0.40;;;0.40;;
44722;SDS011;30451;48.638;10.624;2023-03-14T06:06:06;0.57;;;0.45;;
44722;SDS011;30451;48.638;10.624;2023-03-14T06:08:32;0.68;;;0.55;;
44722;SDS011;30451;48.638;10.624;2023-03-14T06:10:59;0.30;;;0.30;;
44722;SDS011;30451;48.638;10.624;2023-03-14T06:13:27;0.32;;;0.32;;
44722;SDS011;30451;48.638;10.624;2023-03-14T06:15:52;0.30;;;0.30;;
44722;SDS011;30451;48.638;10.624;2023-03-14T06:18:18;2.78;;;0.30;;
44722;SDS011;30451;48.638;10.624;2023-03-14T06:20:43;0.43;;;0.30;;
44722;SDS011;30451;48.638;10.624;2023-03-14T06:23:09;0.75;;;0.50;;
44722;SDS011;30451;48.638;10.624;2023-03-14T06:25:35;0.95;;;0.50;;
44722;SDS011;30451;48.638;10.624;2023-03-14T06:28:01;0.75;;;0.40;;
44722;SDS011;30451;48.638;10.624;2023-03-14T06:30:27;0.60;;;0.38;;
44722;SDS011;30451;48.638;10.624;2023-03-14T06:32:52;0.80;;;0.40;;
44722;SDS011;30451;48.638;10.624;2023-03-14T06:35:20;0.28;;;0.28;;
44722;SDS011;30451;48.638;10.624;2023-03-14T06:37:46;0.68;;;0.40;;
44722;SDS011;30451;48.638;10.624;2023-03-14T06:40:12;0.50;;;0.35;;
44722;SDS011;30451;48.638;10.624;2023-03-14T06:42:42;0.98;;;0.43;;
44722;SDS011;30451;48.638;10.624;2023-03-14T06:45:08;0.50;;;0.40;;
44722;SDS011;30451;48.638;10.624;2023-03-14T06:47:34;0.70;;;0.30;;
44722;SDS011;30451;48.638;10.624;2023-03-14T06:50:00;0.77;;;0.40;;
44722;SDS011;30451;48.638;10.624;2023-03-14T06:52:25;0.40;;;0.40;;
44722;SDS011;30451;48.638;10.624;2023-03-14T06:54:51;0.80;;;0.47;;
44722;SDS011;30451;48.638;10.624;2023-03-14T06:57:16;0.40;;;0.40;;
44722;SDS011;30451;48.638;10.624;2023-03-14T06:59:42;0.77;;;0.50;;
44722;SDS011;30451;48.638;10.624;2023-03-14T07:02:10;0.60;;;0.40;;
44722;SDS011;30451;48.638;10.624;2023-03-14T07:04:37;0.30;;;0.30;;
44722;SDS011;30451;48.638;10.624;2023-03-14T07:07:02;0.82;;;0.50;;
44722;SDS011;30451;48.638;10.624;2023-03-14T07:09:28;0.38;;;0.30;;
44722;SDS011;30451;48.638;10.624;2023-03-14T07:11:53;1.10;;;0.40;;
44722;SDS011;30451;48.638;10.624;2023-03-14T07:14:19;0.40;;;0.35;;
44722;SDS011;30451;48.638;10.624;2023-03-14T07:16:45;0.57;;;0.50;;
44722;SDS011;30451;48.638;10.624;2023-03-14T07:19:10;0.40;;;0.40;;
44722;SDS011;30451;48.638;10.624;2023-03-14T07:21:36;0.73;;;0.43;;
44722;SDS011;30451;48.638;10.624;2023-03-14T07:24:01;0.50;;;0.40;;
44722;SDS011;30451;48.638;10.624;2023-03-14T07:26:27;0.40;;;0.30;;
44722;SDS011;30451;48.638;10.624;2023-03-14T07:28:53;1.55;;;0.40;;
44722;SDS011;30451;48.638;10.624;2023-03-14T07:31:18;0.47;;;0.40;;
44722;SDS011;30451;48.638;10.624;2023-03-14T07:33:44;0.40;;;0.35;;
44722;SDS011;30451;48.638;10.624;2023-03-14T07:36:10;0.40;;;0.40;;
44722;SDS011;30451;48.638;10.624;2023-03-14T07:38:37;0.63;;;0.43;;
44722;SDS011;30451;48.638;10.624;2023-03-14T07:41:03;0.85;;;0.32;;
44722;SDS011;30451;48.638;10.624;2023-03-14T07:43:31;0.85;;;0.30;;
44722;SDS011;30451;48.638;10.624;2023-03-14T07:45:57;0.50;;;0.30;;
44722;SDS011;30451;48.638;10.624;2023-03-14T07:48:22;0.93;;;0.50;;
44722;SDS011;30451;48.638;10.624;2023-03-14T07:50:50;0.70;;;0.30;;
44722;SDS011;30451;48.638;10.624;2023-03-14T07:53:16;0.30;;;0.30;;
44722;SDS011;30451;48.638;10.624;2023-03-14T07:55:42;0.35;;;0.35;;
44722;SDS011;30451;48.638;10.624;2023-03-14T07:58:08;0.47;;;0.38;;
44722;SDS011;30451;48.638;10.624;2023-03-14T08:00:33;0.90;;;0.30;;
44722;SDS011;30451;48.638;10.624;2023-03-14T08:02:59;0.75;;;0.45;;
44722;SDS011;30451;48.638;10.624;2023-03-14T08:05:25;1.13;;;0.30;;
44722;SDS011;30451;48.638;10.624;2023-03-14T08:07:50;0.20;;;0.20;;
44722;SDS011;30451;48.638;10.624;2023-03-14T08:10:16;0.47;;;0.32;;
44722;SDS011;30451;48.638;10.624;2023-03-14T08:12:50;0.40;;;0.30;;
44722;SDS011;30451;48.638;10.624;2023-03-14T08:15:18;0.30;;;0.30;;
44722;SDS011;30451;48.638;10.624;2023-03-14T08:17:44;1.13;;;0.47;;
44722;SDS011;30451;48.638;10.624;2023-03-14T08:20:10;0.40;;;0.40;;
44722;SDS011;30451;48.638;10.624;2023-03-14T08:22:38;0.60;;;0.40;;
44722;SDS011;30451;48.638;10.624;2023-03-14T08:25:03;0.50;;;0.30;;
44722;SDS011;30451;48.638;10.624;2023-03-14T08:27:29;0.45;;;0.30;;
44722;SDS011;30451;48.638;10.624;2023-03-14T08:29:55;0.30;;;0.30;;
44722;SDS011;30451;48.638;10.624;2023-03-14T08:32:21;0.20;;;0.20;;
44722;SDS011;30451;48.638;10.624;2023-03-14T08:34:48;0.93;;;0.28;;
44722;SDS011;30451;48.638;10.624;2023-03-14T08:37:14;0.30;;;0.30;;
44722;SDS011;30451;48.638;10.624;2023-03-14T08:39:39;0.47;;;0.40;;
44722;SDS011;30451;48.638;10.624;2023-03-14T08:42:05;0.30;;;0.30;;
44722;SDS011;30451;48.638;10.624;2023-03-14T08:44:30;0.82;;;0.40;;
44722;SDS011;30451;48.638;10.624;2023-03-14T08:46:56;0.75;;;0.30;;
44722;SDS011;30451;48.638;10.624;2023-03-14T08:49:22;0.40;;;0.40;;
44722;SDS011;30451;48.638;10.624;2023-03-14T08:51:48;0.43;;;0.30;;
44722;SDS011;30451;48.638;10.624;2023-03-14T08:54:13;0.55;;;0.40;;
44722;SDS011;30451;48.638;10.624;2023-03-14T08:56:39;0.77;;;0.50;;
44722;SDS011;30451;48.638;10.624;2023-03-14T08:59:05;0.50;;;0.38;;
44722;SDS011;30451;48.638;10.624;2023-03-14T09:01:30;0.30;;;0.30;;
44722;SDS011;30451;48.638;10.624;2023-03-14T09:03:56;0.77;;;0.40;;
44722;SDS011;30451;48.638;10.624;2023-03-14T09:06:22;0.80;;;0.50;;
44722;SDS011;30451;48.638;10.624;2023-03-14T09:08:47;0.50;;;0.40;;
44722;SDS011;30451;48.638;10.624;2023-03-14T09:11:13;0.52;;;0.40;;
44722;SDS011;30451;48.638;10.624;2023-03-14T09:13:39;0.45;;;0.40;;
44722;SDS011;30451;48.638;10.624;2023-03-14T09:16:06;0.30;;;0.30;;
44722;SDS011;30451;48.638;10.624;2023-03-14T09:18:32;0.47;;;0.40;;
44722;SDS011;30451;48.638;10.624;2023-03-14T09:20:58;0.88;;;0.50;;
44722;SDS011;30451;48.638;10.624;2023-03-14T09:23:23;0.68;;;0.40;;
44722;SDS011;30451;48.638;10.624;2023-03-14T09:25:49;0.85;;;0.47;;
44722;SDS011;30451;48.638;10.624;2023-03-14T09:28:18;0.32;;;0.30;;
44722;SDS011;30451;48.638;10.624;2023-03-14T09:30:44;0.30;;;0.30;;
44722;SDS011;30451;48.638;10.624;2023-03-14T09:33:10;0.43;;;0.30;;
44722;SDS011;30451;48.638;10.624;2023-03-14T09:35:35;0.65;;;0.40;;
44722;SDS011;30451;48.638;10.624;2023-03-14T09:38:01;0.55;;;0.30;;
44722;SDS011;30451;48.638;10.624;2023-03-14T09:40:27;1.45;;;0.40;;
44722;SDS011;30451;48.638;10.624;2023-03-14T09:42:58;0.30;;;0.30;;
44722;SDS011;30451;48.638;10.624;2023-03-14T09:45:28;0.50;;;0.40;;
44722;SDS011;30451;48.638;10.624;2023-03-14T09:47:59;0.77;;;0.38;;
44722;SDS011;30451;48.638;10.624;2023-03-14T09:50:26;0.30;;;0.30;;
44722;SDS011;30451;48.638;10.624;2023-03-14T09:53:03;0.30;;;0.30;;
44722;SDS011;30451;48.638;10.624;2023-03-14T09:55:34;0.43;;;0.40;;
44722;SDS011;30451;48.638;10.624;2023-03-14T09:58:02;0.30;;;0.30;;
44722;SDS011;30451;48.638;10.624;2023-03-14T10:00:33;0.50;;;0.50;;
44722;SDS011;30451;48.638;10.624;2023-03-14T10:03:09;0.47;;;0.30;;
44722;SDS011;30451;48.638;10.624;2023-03-14T10:05:57;0.50;;;0.50;;
44722;SDS011;30451;48.638;10.624;2023-03-14T10:08:23;0.35;;;0.35;;
44722;SDS011;30451;48.638;10.624;2023-03-14T10:10:49;0.20;;;0.20;;
44722;SDS011;30451;48.638;10.624;2023-03-14T10:13:25;0.30;;;0.30;;
44722;SDS011;30451;48.638;10.624;2023-03-14T10:16:00;0.30;;;0.30;;
44722;SDS011;30451;48.638;10.624;2023-03-14T10:18:28;0.75;;;0.40;;
44722;SDS011;30451;48.638;10.624;2023-03-14T10:21:02;0.40;;;0.40;;
44722;SDS011;30451;48.638;10.624;2023-03-14T10:23:31;0.30;;;0.30;;
44722;SDS011;30451;48.638;10.624;2023-03-14T10:26:00;0.38;;;0.30;;
44722;SDS011;30451;48.638;10.624;2023-03-14T10:28:52;0.60;;;0.40;;
44722;SDS011;30451;48.638;10.624;2023-03-14T10:31:25;0.50;;;0.45;;
44722;SDS011;30451;48.638;10.624;2023-03-14T10:34:01;0.60;;;0.40;;
44722;SDS011;30451;48.638;10.624;2023-03-14T10:36:29;0.90;;;0.32;;
44722;SDS011;30451;48.638;10.624;2023-03-14T10:41:46;0.75;;;0.35;;
44722;SDS011;30451;48.638;10.624;2023-03-14T10:44:18;1.27;;;0.30;;
44722;SDS011;30451;48.638;10.624;2023-03-14T10:46:54;0.40;;;0.25;;
44722;SDS011;30451;48.638;10.624;2023-03-14T10:49:33;0.32;;;0.30;;
44722;SDS011;30451;48.638;10.624;2023-03-14T10:52:01;0.68;;;0.43;;
44722;SDS011;30451;48.638;10.624;2023-03-14T10:55:08;0.73;;;0.45;;
44722;SDS011;30451;48.638;10.624;2023-03-14T10:57:40;0.95;;;0.50;;
44722;SDS011;30451;48.638;10.624;2023-03-14T11:00:09;0.68;;;0.30;;
44722;SDS011;30451;48.638;10.624;2023-03-14T11:05:17;0.57;;;0.40;;
44722;SDS011;30451;48.638;10.624;2023-03-14T11:08:02;0.50;;;0.40;;
44722;SDS011;30451;48.638;10.624;2023-03-14T11:10:34;1.17;;;0.40;;
44722;SDS011;30451;48.638;10.624;2023-03-14T11:13:25;0.40;;;0.40;;
44722;SDS011;30451;48.638;10.624;2023-03-14T11:16:04;0.30;;;0.30;;
44722;SDS011;30451;48.638;10.624;2023-03-14T11:18:46;0.63;;;0.30;;
44722;SDS011;30451;48.638;10.624;2023-03-14T11:21:32;0.32;;;0.30;;
44722;SDS011;30451;48.638;10.624;2023-03-14T11:32:43;0.52;;;0.40;;
44722;SDS011;30451;48.638;10.624;2023-03-14T11:35:25;0.65;;;0.40;;
44722;SDS011;30451;48.638;10.624;2023-03-14T11:40:40;0.75;;;0.50;;
44722;SDS011;30451;48.638;10.624;2023-03-14T11:45:39;0.40;;;0.38;;
44722;SDS011;30451;48.638;10.624;2023-03-14T11:48:11;0.50;;;0.40;;
44722;SDS011;30451;48.638;10.624;2023-03-14T11:50:47;0.50;;;0.40;;
44722;SDS011;30451;48.638;10.624;2023-03-14T11:56:34;1.30;;;0.40;;
44722;SDS011;30451;48.638;10.624;2023-03-14T11:59:05;0.63;;;0.47;;
44722;SDS011;30451;48.638;10.624;2023-03-14T12:02:01;0.85;;;0.40;;
44722;SDS011;30451;48.638;10.624;2023-03-14T12:07:39;0.22;;;0.22;;
44722;SDS011;30451;48.638;10.624;2023-03-14T12:10:10;0.52;;;0.40;;
44722;SDS011;30451;48.638;10.624;2023-03-14T12:12:35;0.35;;;0.30;;
44722;SDS011;30451;48.638;10.624;2023-03-14T12:15:02;0.80;;;0.47;;
44722;SDS011;30451;48.638;10.624;2023-03-14T12:17:36;0.85;;;0.50;;
44722;SDS011;30451;48.638;10.624;2023-03-14T12:22:55;1.10;;;0.57;;
44722;SDS011;30451;48.638;10.624;2023-03-14T12:25:27;1.75;;;0.68;;
44722;SDS011;30451;48.638;10.624;2023-03-14T12:30:34;1.38;;;0.60;;
44722;SDS011;30451;48.638;10.624;2023-03-14T12:35:36;1.80;;;0.60;;
44722;SDS011;30451;48.638;10.624;2023-03-14T12:43:46;2.88;;;0.70;;
44722;SDS011;30451;48.638;10.624;2023-03-14T12:46:19;3.25;;;1.15;;
44722;SDS011;30451;48.638;10.624;2023-03-14T12:48:48;2.08;;;0.70;;
44722;SDS011;30451;48.638;10.624;2023-03-14T12:51:21;2.63;;;0.80;;
44722;SDS011;30451;48.638;10.624;2023-03-14T13:01:40;2.58;;;0.80;;
44722;SDS011;30451;48.638;10.624;2023-03-14T13:04:19;2.13;;;0.80;;
44722;SDS011;30451;48.638;10.624;2023-03-14T13:06:58;2.70;;;0.90;;
44722;SDS011;30451;48.638;10.624;2023-03-14T13:12:11;3.55;;;0.95;;
44722;SDS011;30451;48.638;10.624;2023-03-14T13:14:47;2.25;;;0.90;;
44722;SDS011;30451;48.638;10.624;2023-03-14T13:17:15;2.55;;;0.80;;
44722;SDS011;30451;48.638;10.624;2023-03-14T13:19:59;3.13;;;1.00;;
44722;SDS011;30451;48.638;10.624;2023-03-14T13:22:30;3.05;;;1.10;;
44722;SDS011;30451;48.638;10.624;2023-03-14T13:25:05;2.72;;;1.23;;
44722;SDS011;30451;48.638;10.624;2023-03-14T13:27:34;4.10;;;0.98;;
44722;SDS011;30451;48.638;10.624;2023-03-14T13:30:14;3.25;;;1.10;;
44722;SDS011;30451;48.638;10.624;2023-03-14T13:32:51;2.55;;;1.00;;
44722;SDS011;30451;48.638;10.624;2023-03-14T13:35:26;3.58;;;1.10;;
44722;SDS011;30451;48.638;10.624;2023-03-14T13:37:54;4.00;;;1.13;;
44722;SDS011;30451;48.638;10.624;2023-03-14T13:40:34;3.28;;;1.00;;
44722;SDS011;30451;48.638;10.624;2023-03-14T13:43:23;2.42;;;0.77;;
44722;SDS011;30451;48.638;10.624;2023-03-14T13:48:21;2.72;;;0.90;;
44722;SDS011;30451;48.638;10.624;2023-03-14T13:50:51;3.17;;;1.00;;
44722;SDS011;30451;48.638;10.624;2023-03-14T13:53:23;2.15;;;0.95;;
44722;SDS011;30451;48.638;10.624;2023-03-14T13:55:50;3.35;;;1.13;;
44722;SDS011;30451;48.638;10.624;2023-03-14T13:58:23;2.67;;;1.02;;
44722;SDS011;30451;48.638;10.624;2023-03-14T14:00:56;4.15;;;1.00;;
44722;SDS011;30451;48.638;10.624;2023-03-14T14:03:43;3.28;;;1.05;;
44722;SDS011;30451;48.638;10.624;2023-03-14T14:06:18;2.15;;;0.80;;
44722;SDS011;30451;48.638;10.624;2023-03-14T14:09:01;3.85;;;1.13;;
44722;SDS011;30451;48.638;10.624;2023-03-14T14:11:41;2.28;;;0.90;;
44722;SDS011;30451;48.638;10.624;2023-03-14T14:14:09;3.40;;;1.10;;
44722;SDS011;30451;48.638;10.624;2023-03-14T14:16:38;2.10;;;0.85;;
44722;SDS011;30451;48.638;10.624;2023-03-14T14:19:04;3.33;;;1.00;;
44722;SDS011;30451;48.638;10.624;2023-03-14T14:21:30;3.45;;;1.15;;
44722;SDS011;30451;48.638;10.624;2023-03-14T14:23:57;1.63;;;0.80;;
44722;SDS011;30451;48.638;10.624;2023-03-14T14:26:22;3.63;;;1.42;;
44722;SDS011;30451;48.638;10.624;2023-03-14T14:28:57;4.10;;;0.90;;
44722;SDS011;30451;48.638;10.624;2023-03-14T14:31:24;2.92;;;0.90;;
44722;SDS011;30451;48.638;10.624;2023-03-14T14:39:00;2.97;;;0.88;;
44722;SDS011;30451;48.638;10.624;2023-03-14T14:41:31;2.53;;;0.98;;
44722;SDS011;30451;48.638;10.624;2023-03-14T14:43:59;2.67;;;1.00;;
44722;SDS011;30451;48.638;10.624;2023-03-14T14:46:26;2.65;;;1.20;;
44722;SDS011;30451;48.638;10.624;2023-03-14T14:48:56;2.28;;;0.77;;
44722;SDS011;30451;48.638;10.624;2023-03-14T14:51:30;3.25;;;1.00;;
44722;SDS011;30451;48.638;10.624;2023-03-14T14:54:09;3.50;;;1.00;;
44722;SDS011;30451;48.638;10.624;2023-03-14T14:56:39;2.13;;;0.88;;
44722;SDS011;30451;48.638;10.624;2023-03-14T14:59:06;3.20;;;0.88;;
44722;SDS011;30451;48.638;10.624;2023-03-14T15:01:46;1.98;;;0.80;;
44722;SDS011;30451;48.638;10.624;2023-03-14T15:04:13;2.22;;;0.90;;
44722;SDS011;30451;48.638;10.624;2023-03-14T15:06:42;2.53;;;0.80;;
44722;SDS011;30451;48.638;10.624;2023-03-14T15:09:10;2.60;;;0.90;;
44722;SDS011;30451;48.638;10.624;2023-03-14T15:11:36;2.88;;;1.10;;
44722;SDS011;30451;48.638;10.624;2023-03-14T15:14:02;3.80;;;0.90;;
44722;SDS011;30451;48.638;10.624;2023-03-14T15:16:29;1.67;;;0.80;;
44722;SDS011;30451;48.638;10.624;2023-03-14T15:18:56;2.17;;;0.80;;
44722;SDS011;30451;48.638;10.624;2023-03-14T15:21:24;1.58;;;0.80;;
44722;SDS011;30451;48.638;10.624;2023-03-14T15:23:51;1.67;;;0.70;;
44722;SDS011;30451;48.638;10.624;2023-03-14T15:26:18;2.08;;;1.08;;
44722;SDS011;30451;48.638;10.624;2023-03-14T15:28:46;2.00;;;0.70;;
44722;SDS011;30451;48.638;10.624;2023-03-14T15:31:12;2.58;;;1.13;;
44722;SDS011;30451;48.638;10.624;2023-03-14T15:33:40;1.85;;;0.70;;
44722;SDS011;30451;48.638;10.624;2023-03-14T15:36:06;2.13;;;0.98;;
44722;SDS011;30451;48.638;10.624;2023-03-14T15:38:52;2.53;;;0.80;;
44722;SDS011;30451;48.638;10.624;2023-03-14T15:41:18;2.10;;;0.70;;
44722;SDS011;30451;48.638;10.624;2023-03-14T15:43:45;1.60;;;0.80;;
44722;SDS011;30451;48.638;10.624;2023-03-14T15:46:11;1.20;;;0.68;;
44722;SDS011;30451;48.638;10.624;2023-03-14T15:48:37;1.77;;;0.80;;